Time;durP1;ratioP1;P1;durP2;ratioP2;P2;SDS_P1;SDS_P2;PMS_P1;PMS_P2;Temp;Humidity;BMP_temperature;BMP_pressure;BME280_temperature;BME280_humidity;BME280_pressure;Samples;Min_cycle;Max_cycle;Signal;HPM_P1;HPM_P2
2023/01/24 00:00:39;;;;;;;;;;;20.30;54.00;;;;;;1566577;75;734;-64
2023/01/24 00:02:41;;;;;;;;;;;20.30;54.00;;;;;;1554327;74;1931;-66
2023/01/24 00:04:43;;;;;;;;;;;20.30;54.10;;;;;;1555202;75;592;-67
2023/01/24 00:06:45;;;;;;;;;;;20.30;54.20;;;;;;1559658;74;735;-64
2023/01/24 00:08:47;;;;;;;;;;;20.30;54.30;;;;;;1560694;74;1492;-66
2023/01/24 00:10:49;;;;;;;;;;;20.30;54.30;;;;;;1566136;74;742;-67
2023/01/24 00:12:50;;;;;;;;;;;20.30;54.20;;;;;;1560120;74;774;-70
2023/01/24 00:14:53;;;;;;;;;;;20.30;54.00;;;;;;1555824;74;723;-74
2023/01/24 00:16:55;;;;;;;;;;;20.40;54.00;;;;;;1563977;74;1122;-68
2023/01/24 00:18:57;;;;;;;;;;;20.40;54.00;;;;;;1571976;73;2146;-68
2023/01/24 00:21:05;;;;;;;;;;;20.30;53.90;;;;;;1577903;74;734;-67
2023/01/24 00:23:07;;;;;;;;;;;20.30;54.00;;;;;;1574911;74;1888;-68
2023/01/24 00:25:09;;;;;;;;;;;20.30;53.80;;;;;;1574146;74;800;-67
2023/01/24 00:27:11;;;;;;;;;;;20.30;53.90;;;;;;1631499;71;745;-69
2023/01/24 00:29:13;;;;;;;;;;;20.30;53.80;;;;;;1614948;72;1173;-68
2023/01/24 00:31:15;;;;;;;;;;;20.30;53.80;;;;;;1606941;72;699;-67
2023/01/24 00:33:16;;;;;;;;;;;20.30;53.90;;;;;;1602010;72;755;-68
2023/01/24 00:35:18;;;;;;;;;;;20.40;53.80;;;;;;1603231;72;754;-68
2023/01/24 00:37:20;;;;;;;;;;;20.30;53.80;;;;;;1597052;74;792;-67
2023/01/24 00:39:22;;;;;;;;;;;20.30;53.80;;;;;;1599522;73;1126;-67
2023/01/24 00:41:24;;;;;;;;;;;20.30;53.90;;;;;;1600876;72;774;-68
2023/01/24 00:43:28;;;;;;;;;;;20.30;53.80;;;;;;1605291;72;1969;-68
2023/01/24 00:45:30;;;;;;;;;;;20.30;53.80;;;;;;1606770;74;763;-69
2023/01/24 00:47:32;;;;;;;;;;;20.30;53.70;;;;;;1600781;74;712;-69
2023/01/24 00:49:34;;;;;;;;;;;20.30;53.70;;;;;;1606487;72;1079;-69
2023/01/24 00:51:36;;;;;;;;;;;20.30;53.70;;;;;;1608083;72;812;-71
2023/01/24 00:53:38;;;;;;;;;;;20.40;53.60;;;;;;1606962;73;796;-69
2023/01/24 00:55:47;;;;;;;;;;;20.40;53.60;;;;;;1587247;73;790;-66
2023/01/24 00:57:49;;;;;;;;;;;20.30;53.90;;;;;;1593438;72;1060;-66
2023/01/24 00:59:51;;;;;;;;;;;20.40;53.90;;;;;;1607971;74;752;-66
2023/01/24 01:01:53;;;;;;;;;;;20.40;53.90;;;;;;1607946;72;1934;-64
2023/01/24 01:03:57;;;;;;;;;;;20.40;54.20;;;;;;1601692;72;1547;-67
2023/01/24 01:06:00;;;;;;;;;;;20.40;54.10;;;;;;1587677;72;1628;-69
2023/01/24 01:08:02;;;;;;;;;;;20.40;54.00;;;;;;1602585;73;1828;-67
2023/01/24 01:10:04;;;;;;;;;;;20.40;54.00;;;;;;1592963;72;714;-67
2023/01/24 01:12:06;;;;;;;;;;;20.40;54.00;;;;;;1604691;72;743;-67
2023/01/24 01:14:09;;;;;;;;;;;20.40;54.00;;;;;;1586592;72;770;-68
2023/01/24 01:16:11;;;;;;;;;;;20.40;53.90;;;;;;1595885;72;692;-67
2023/01/24 01:18:13;;;;;;;;;;;20.40;53.90;;;;;;1598754;73;1129;-67
2023/01/24 01:20:15;;;;;;;;;;;20.40;53.90;;;;;;1596885;72;794;-67
2023/01/24 01:22:17;;;;;;;;;;;20.40;53.90;;;;;;1601482;72;1965;-68
2023/01/24 01:24:19;;;;;;;;;;;20.40;53.90;;;;;;1608266;72;720;-67
2023/01/24 01:26:21;;;;;;;;;;;20.40;53.80;;;;;;1597060;72;750;-68
2023/01/24 01:28:23;;;;;;;;;;;20.40;53.80;;;;;;1598722;72;1148;-69
2023/01/24 01:30:25;;;;;;;;;;;20.40;53.80;;;;;;1603241;72;800;-66
2023/01/24 01:32:26;;;;;;;;;;;20.40;53.80;;;;;;1602502;74;679;-66
2023/01/24 01:34:28;;;;;;;;;;;20.40;53.80;;;;;;1598774;72;770;-66
2023/01/24 01:36:30;;;;;;;;;;;20.40;53.70;;;;;;1605837;72;756;-67
2023/01/24 01:38:32;;;;;;;;;;;20.40;53.70;;;;;;1595308;73;1164;-68
2023/01/24 01:40:34;;;;;;;;;;;20.40;53.80;;;;;;1598579;74;726;-69
2023/01/24 01:42:46;;;;;;;;;;;20.50;54.20;;;;;;1591168;74;1934;-70
2023/01/24 01:44:49;;;;;;;;;;;20.40;54.00;;;;;;1596087;72;1665;-67
2023/01/24 01:46:51;;;;;;;;;;;20.50;54.10;;;;;;1600211;72;707;-68
2023/01/24 01:48:54;;;;;;;;;;;20.50;53.80;;;;;;1601767;72;1163;-67
2023/01/24 01:50:57;;;;;;;;;;;20.50;53.80;;;;;;1600987;72;755;-67
2023/01/24 01:52:59;;;;;;;;;;;20.50;54.00;;;;;;1604722;74;1660;-67
2023/01/24 01:55:03;;;;;;;;;;;20.50;53.60;;;;;;1592640;72;697;-67
2023/01/24 01:57:06;;;;;;;;;;;20.60;53.30;;;;;;1591679;72;726;-67
2023/01/24 01:59:10;;;;;;;;;;;20.70;53.20;;;;;;1604185;73;1797;-67
2023/01/24 02:01:12;;;;;;;;;;;20.70;53.20;;;;;;1609226;72;1586;-67
2023/01/24 02:05:34;;;;;;;;;;;20.70;53.10;;;;;;1596765;74;1657;-68
2023/01/24 02:07:44;;;;;;;;;;;20.70;53.00;;;;;;1603062;72;679;-68
2023/01/24 02:09:46;;;;;;;;;;;20.60;52.90;;;;;;1597233;72;725;-66
2023/01/24 02:11:48;;;;;;;;;;;20.60;53.10;;;;;;1607212;72;797;-67
2023/01/24 02:16:01;;;;;;;;;;;20.60;53.20;;;;;;1605830;74;753;-67
2023/01/24 02:16:03;;;;;;;;;;;20.60;53.40;;;;;;1601833;72;1009;-66
2023/01/24 02:18:05;;;;;;;;;;;20.50;53.60;;;;;;1596024;72;1127;-66
2023/01/24 02:20:24;;;;;;;;;;;20.50;53.50;;;;;;1596704;74;819;-67
2023/01/24 02:22:27;;;;;;;;;;;20.50;53.40;;;;;;1596931;72;2088;-68
2023/01/24 02:24:31;;;;;;;;;;;20.60;53.50;;;;;;1598200;72;1897;-65
2023/01/24 02:26:32;;;;;;;;;;;20.50;53.70;;;;;;1605457;74;721;-67
2023/01/24 02:28:34;;;;;;;;;;;20.50;53.70;;;;;;1604639;74;1143;-66
2023/01/24 02:30:36;;;;;;;;;;;20.50;53.80;;;;;;1595657;72;602;-66
2023/01/24 02:32:38;;;;;;;;;;;20.60;53.80;;;;;;1605214;72;731;-67
2023/01/24 02:34:40;;;;;;;;;;;20.50;53.70;;;;;;1595696;72;724;-68
2023/01/24 02:36:42;;;;;;;;;;;20.50;53.70;;;;;;1602920;73;751;-67
2023/01/24 02:38:45;;;;;;;;;;;20.50;53.80;;;;;;1599430;74;1270;-66
2023/01/24 02:40:47;;;;;;;;;;;20.50;53.80;;;;;;1603182;73;808;-66
2023/01/24 02:42:49;;;;;;;;;;;20.50;53.80;;;;;;1595362;74;2230;-67
2023/01/24 02:44:56;;;;;;;;;;;20.50;53.80;;;;;;1600193;74;687;-67
2023/01/24 02:46:58;;;;;;;;;;;20.50;53.90;;;;;;1589591;73;1093;-64
2023/01/24 02:49:00;;;;;;;;;;;20.50;53.70;;;;;;1604102;72;1146;-67
2023/01/24 02:53:31;;;;;;;;;;;20.50;53.80;;;;;;1597285;72;1690;-67
2023/01/24 02:55:33;;;;;;;;;;;20.60;53.70;;;;;;1594796;72;701;-67
2023/01/24 02:59:55;;;;;;;;;;;20.60;53.60;;;;;;1584513;72;1660;-66
2023/01/24 03:01:57;;;;;;;;;;;20.50;53.60;;;;;;1604145;72;806;-67
2023/01/24 03:03:59;;;;;;;;;;;20.50;53.60;;;;;;1580963;74;1919;-66
2023/01/24 03:06:01;;;;;;;;;;;20.60;53.40;;;;;;1593185;72;789;-67
2023/01/24 03:08:02;;;;;;;;;;;20.60;53.40;;;;;;1604258;72;1138;-66
2023/01/24 03:10:05;;;;;;;;;;;20.60;53.20;;;;;;1588353;72;773;-66
2023/01/24 03:35:24;;;;;;;;;;;20.60;54.20;;;;;;1605694;74;597;-66
2023/01/24 03:39:58;;;;;;;;;;;20.60;53.90;;;;;;1599000;72;1672;-67
2023/01/24 03:41:58;;;;;;;;;;;20.60;54.20;;;;;;1597028;72;1668;-67
2023/01/24 03:44:00;;;;;;;;;;;20.60;54.20;;;;;;1601709;72;1937;-66
2023/01/24 03:46:02;;;;;;;;;;;20.60;54.10;;;;;;1595845;72;746;-68
2023/01/24 03:48:14;;;;;;;;;;;20.60;53.90;;;;;;1596702;72;1060;-67
2023/01/24 03:52:36;;;;;;;;;;;20.60;54.00;;;;;;1597024;72;625;-66
2023/01/24 03:54:37;;;;;;;;;;;20.60;53.90;;;;;;1603700;72;733;-67
2023/01/24 03:56:39;;;;;;;;;;;20.60;53.90;;;;;;1601735;72;718;-67
2023/01/24 03:58:41;;;;;;;;;;;20.70;54.20;;;;;;1602458;72;1133;-68
2023/01/24 04:00:43;;;;;;;;;;;20.70;54.00;;;;;;1602321;73;783;-68
2023/01/24 04:02:45;;;;;;;;;;;20.60;53.90;;;;;;1602191;74;1947;-67
2023/01/24 04:07:07;;;;;;;;;;;20.60;53.90;;;;;;1586279;72;1657;-66
2023/01/24 04:09:09;;;;;;;;;;;20.60;53.90;;;;;;1597662;72;1111;-67
2023/01/24 04:11:10;;;;;;;;;;;20.60;54.10;;;;;;1603971;72;742;-67
2023/01/24 04:13:12;;;;;;;;;;;20.70;54.40;;;;;;1601732;72;722;-67
2023/01/24 04:15:16;;;;;;;;;;;20.70;54.30;;;;;;1611395;73;811;-69
2023/01/24 04:17:18;;;;;;;;;;;20.70;54.10;;;;;;1605348;72;1819;-66
2023/01/24 04:19:20;;;;;;;;;;;20.70;54.00;;;;;;1601193;72;1107;-67
2023/01/24 04:21:22;;;;;;;;;;;20.70;54.20;;;;;;1585532;74;787;-67
2023/01/24 04:23:24;;;;;;;;;;;20.70;53.90;;;;;;1589970;72;1940;-67
2023/01/24 04:25:25;;;;;;;;;;;20.70;54.00;;;;;;1606616;72;832;-67
2023/01/24 04:27:27;;;;;;;;;;;20.80;53.90;;;;;;1604806;72;747;-68
2023/01/24 04:29:29;;;;;;;;;;;20.80;53.90;;;;;;1604875;72;1130;-68
2023/01/24 04:31:31;;;;;;;;;;;20.70;53.80;;;;;;1597478;72;774;-67
2023/01/24 04:33:33;;;;;;;;;;;20.70;53.70;;;;;;1601160;74;723;-66
2023/01/24 04:35:35;;;;;;;;;;;20.80;53.80;;;;;;1609152;72;773;-67
2023/01/24 04:37:37;;;;;;;;;;;20.70;53.70;;;;;;1594887;73;799;-67
2023/01/24 04:39:39;;;;;;;;;;;20.70;53.70;;;;;;1597186;74;1105;-67
2023/01/24 04:41:41;;;;;;;;;;;20.80;53.70;;;;;;1598942;72;777;-68
2023/01/24 04:43:42;;;;;;;;;;;20.70;53.60;;;;;;1601201;72;1940;-67
2023/01/24 04:45:44;;;;;;;;;;;20.70;53.60;;;;;;1602433;74;803;-68
2023/01/24 04:47:46;;;;;;;;;;;20.80;53.60;;;;;;1597049;73;1143;-67
2023/01/24 04:49:48;;;;;;;;;;;20.70;53.60;;;;;;1594991;72;1522;-68
2023/01/24 04:51:50;;;;;;;;;;;20.70;53.50;;;;;;1606346;72;776;-67
2023/01/24 04:53:52;;;;;;;;;;;20.80;53.50;;;;;;1604963;73;857;-72
2023/01/24 04:55:54;;;;;;;;;;;20.80;53.50;;;;;;1604477;72;720;-67
2023/01/24 04:57:56;;;;;;;;;;;20.80;53.60;;;;;;1600100;72;1141;-68
2023/01/24 04:59:58;;;;;;;;;;;20.80;53.50;;;;;;1608020;72;783;-69
2023/01/24 05:02:00;;;;;;;;;;;20.80;53.60;;;;;;1593446;74;745;-68
2023/01/24 05:04:02;;;;;;;;;;;20.80;53.60;;;;;;1597733;72;1898;-67
2023/01/24 05:06:03;;;;;;;;;;;20.90;53.60;;;;;;1605339;72;808;-67
2023/01/24 05:08:05;;;;;;;;;;;20.90;53.50;;;;;;1605678;74;1090;-67
2023/01/24 05:10:08;;;;;;;;;;;20.90;53.40;;;;;;1607912;72;876;-68
2023/01/24 05:12:10;;;;;;;;;;;20.90;53.40;;;;;;1605335;72;694;-67
2023/01/24 05:14:11;;;;;;;;;;;20.90;53.40;;;;;;1602916;74;664;-67
2023/01/24 05:16:13;;;;;;;;;;;20.90;53.30;;;;;;1603030;72;797;-69
2023/01/24 05:18:15;;;;;;;;;;;20.90;53.40;;;;;;1591339;72;1117;-68
2023/01/24 05:20:17;;;;;;;;;;;20.90;53.50;;;;;;1596677;72;783;-68
2023/01/24 05:22:19;;;;;;;;;;;20.90;53.80;;;;;;1599309;72;752;-67
2023/01/24 05:24:21;;;;;;;;;;;20.90;53.40;;;;;;1606984;72;1928;-65
2023/01/24 05:26:23;;;;;;;;;;;20.90;53.70;;;;;;1609838;72;762;-65
2023/01/24 05:28:25;;;;;;;;;;;20.90;53.90;;;;;;1597517;72;1133;-67
2023/01/24 05:30:27;;;;;;;;;;;21.00;53.60;;;;;;1595030;72;724;-67
2023/01/24 05:32:29;;;;;;;;;;;20.90;53.60;;;;;;1605792;72;763;-67
2023/01/24 05:34:31;;;;;;;;;;;21.00;53.70;;;;;;1604144;74;666;-69
2023/01/24 05:36:33;;;;;;;;;;;21.00;53.60;;;;;;1588309;74;718;-68
2023/01/24 05:38:35;;;;;;;;;;;20.90;53.70;;;;;;1604585;72;1121;-68
2023/01/24 05:40:36;;;;;;;;;;;21.00;53.70;;;;;;1610965;72;679;-68
2023/01/24 05:42:40;;;;;;;;;;;20.90;53.60;;;;;;1606094;74;693;-66
2023/01/24 05:44:42;;;;;;;;;;;20.90;53.80;;;;;;1600424;72;1926;-67
2023/01/24 05:46:44;;;;;;;;;;;20.90;53.80;;;;;;1596156;73;1605;-69
2023/01/24 05:48:45;;;;;;;;;;;21.00;53.70;;;;;;1602688;72;1118;-66
2023/01/24 05:50:47;;;;;;;;;;;20.90;53.70;;;;;;1596150;72;756;-67
2023/01/24 05:52:49;;;;;;;;;;;20.90;53.60;;;;;;1605420;74;649;-69
2023/01/24 05:54:51;;;;;;;;;;;20.90;53.60;;;;;;1599235;72;723;-68
2023/01/24 05:56:53;;;;;;;;;;;21.00;53.70;;;;;;1592514;72;720;-70
2023/01/24 05:58:55;;;;;;;;;;;21.00;53.60;;;;;;1597927;74;1122;-69
2023/01/24 06:00:57;;;;;;;;;;;21.00;53.70;;;;;;1600120;74;735;-68
2023/01/24 06:03:02;;;;;;;;;;;20.90;53.90;;;;;;1599430;72;772;-67
2023/01/24 06:05:04;;;;;;;;;;;21.00;53.90;;;;;;1598784;72;1956;-68
2023/01/24 06:07:06;;;;;;;;;;;20.90;53.80;;;;;;1594157;73;701;-66
2023/01/24 06:09:08;;;;;;;;;;;20.90;53.70;;;;;;1605701;72;1184;-65
2023/01/24 06:11:12;;;;;;;;;;;21.10;53.60;;;;;;1601453;73;792;-67
2023/01/24 06:13:14;;;;;;;;;;;21.00;53.20;;;;;;1600139;74;717;-68
2023/01/24 06:15:16;;;;;;;;;;;21.00;53.00;;;;;;1597231;74;737;-66
2023/01/24 06:17:17;;;;;;;;;;;20.90;52.90;;;;;;1597113;72;797;-67
2023/01/24 06:19:19;;;;;;;;;;;20.90;52.80;;;;;;1602712;72;2051;-68
2023/01/24 06:21:23;;;;;;;;;;;20.90;52.80;;;;;;1611456;73;826;-68
2023/01/24 06:23:26;;;;;;;;;;;20.90;52.80;;;;;;1606335;73;1048;-72
2023/01/24 06:25:28;;;;;;;;;;;20.90;52.70;;;;;;1617024;73;1925;-70
2023/01/24 06:27:30;;;;;;;;;;;20.90;52.60;;;;;;1620889;73;684;-69
2023/01/24 06:29:32;;;;;;;;;;;20.90;52.60;;;;;;1621648;72;1216;-71
2023/01/24 06:31:38;;;;;;;;;;;20.90;52.60;;;;;;1606016;72;717;-67
2023/01/24 06:33:48;;;;;;;;;;;20.80;52.40;;;;;;1611675;73;747;-68
2023/01/24 06:36:00;;;;;;;;;;;20.80;52.80;;;;;;1598501;73;692;-69
2023/01/24 06:38:02;;;;;;;;;;;20.80;53.00;;;;;;1606700;72;1593;-73
2023/01/24 06:40:04;;;;;;;;;;;20.90;53.20;;;;;;1618367;73;1071;-72
2023/01/24 06:42:07;;;;;;;;;;;20.90;53.20;;;;;;1617114;73;1417;-71
2023/01/24 06:44:10;;;;;;;;;;;20.90;53.10;;;;;;1603266;73;1946;-70
2023/01/24 06:46:12;;;;;;;;;;;20.90;53.00;;;;;;1604756;73;740;-73
2023/01/24 06:48:14;;;;;;;;;;;20.90;52.90;;;;;;1606979;73;1141;-68
2023/01/24 06:50:20;;;;;;;;;;;20.90;52.90;;;;;;1604627;73;762;-71
2023/01/24 06:52:22;;;;;;;;;;;20.90;52.90;;;;;;1607854;73;741;-67
2023/01/24 06:54:23;;;;;;;;;;;20.90;52.90;;;;;;1610265;73;670;-71
2023/01/24 06:56:25;;;;;;;;;;;20.90;52.70;;;;;;1617799;73;719;-71
2023/01/24 06:58:27;;;;;;;;;;;20.90;52.30;;;;;;1623001;73;1141;-70
2023/01/24 07:00:29;;;;;;;;;;;20.80;52.10;;;;;;1598418;73;653;-72
2023/01/24 07:02:31;;;;;;;;;;;20.80;52.10;;;;;;1614829;73;737;-70
2023/01/24 07:04:33;;;;;;;;;;;20.80;52.10;;;;;;1599068;73;1930;-70
2023/01/24 07:06:35;;;;;;;;;;;20.80;52.00;;;;;;1594208;73;745;-70
2023/01/24 07:08:36;;;;;;;;;;;20.80;52.10;;;;;;1595741;73;1123;-72
2023/01/24 07:10:39;;;;;;;;;;;20.80;52.00;;;;;;1604519;73;825;-69
2023/01/24 07:12:42;;;;;;;;;;;20.80;51.90;;;;;;1607799;73;770;-71
2023/01/24 07:14:44;;;;;;;;;;;20.80;52.00;;;;;;1595071;73;591;-68
2023/01/24 07:16:46;;;;;;;;;;;20.80;51.90;;;;;;1605667;73;729;-70
2023/01/24 07:18:48;;;;;;;;;;;20.80;52.00;;;;;;1606266;73;1381;-70
2023/01/24 07:20:50;;;;;;;;;;;20.80;51.90;;;;;;1601038;73;722;-70
2023/01/24 07:22:52;;;;;;;;;;;20.80;51.90;;;;;;1619219;73;767;-71
2023/01/24 07:24:54;;;;;;;;;;;20.70;51.90;;;;;;1598870;72;1929;-71
2023/01/24 07:26:56;;;;;;;;;;;20.80;51.90;;;;;;1601837;73;697;-69
2023/01/24 07:28:58;;;;;;;;;;;20.80;51.90;;;;;;1609476;73;1174;-68
2023/01/24 07:31:00;;;;;;;;;;;20.80;51.90;;;;;;1607829;73;730;-69
2023/01/24 07:33:02;;;;;;;;;;;20.90;52.00;;;;;;1604049;73;743;-69
2023/01/24 07:35:04;;;;;;;;;;;20.90;50.80;;;;;;1611275;73;760;-69
2023/01/24 07:37:07;;;;;;;;;;;20.90;50.50;;;;;;1592529;73;749;-71
2023/01/24 07:39:08;;;;;;;;;;;21.00;48.80;;;;;;1607810;73;1475;-70
2023/01/24 07:41:10;;;;;;;;;;;21.10;48.70;;;;;;1601907;73;710;-69
2023/01/24 07:43:12;;;;;;;;;;;21.20;48.40;;;;;;1612843;73;721;-69
2023/01/24 07:45:14;;;;;;;;;;;21.10;47.30;;;;;;1599337;73;1929;-69
2023/01/24 07:47:17;;;;;;;;;;;21.10;46.80;;;;;;1611726;73;745;-72
2023/01/24 07:49:18;;;;;;;;;;;21.10;46.80;;;;;;1601338;73;1140;-70
2023/01/24 07:51:20;;;;;;;;;;;21.00;46.40;;;;;;1605622;73;718;-73
2023/01/24 07:53:22;;;;;;;;;;;21.10;46.30;;;;;;1607302;73;622;-69
2023/01/24 07:55:24;;;;;;;;;;;21.00;45.90;;;;;;1620845;73;787;-70
2023/01/24 07:57:26;;;;;;;;;;;21.00;45.90;;;;;;1602826;73;804;-71
2023/01/24 07:59:28;;;;;;;;;;;21.00;45.70;;;;;;1601637;73;1121;-70
2023/01/24 08:01:29;;;;;;;;;;;21.10;45.40;;;;;;1600135;73;703;-74
2023/01/24 08:03:31;;;;;;;;;;;21.10;45.10;;;;;;1603291;73;724;-72
2023/01/24 08:05:33;;;;;;;;;;;21.00;44.20;;;;;;1611632;73;1931;-72
2023/01/24 08:07:35;;;;;;;;;;;21.00;44.20;;;;;;1609561;73;730;-69
2023/01/24 08:09:37;;;;;;;;;;;21.00;44.20;;;;;;1595769;73;1080;-68
2023/01/24 08:11:39;;;;;;;;;;;21.00;43.60;;;;;;1600806;73;708;-70
2023/01/24 08:13:41;;;;;;;;;;;20.90;43.50;;;;;;1618561;73;758;-70
2023/01/24 08:15:43;;;;;;;;;;;20.90;43.80;;;;;;1619620;73;757;-70
2023/01/24 08:17:44;;;;;;;;;;;20.80;43.70;;;;;;1611367;73;671;-75
2023/01/24 08:19:46;;;;;;;;;;;20.90;43.60;;;;;;1610335;72;1207;-69
2023/01/24 08:21:48;;;;;;;;;;;20.80;43.30;;;;;;1620611;73;580;-70
2023/01/24 08:23:50;;;;;;;;;;;20.70;43.00;;;;;;1601585;72;780;-68
2023/01/24 08:25:52;;;;;;;;;;;20.70;43.20;;;;;;1602828;73;1931;-68
2023/01/24 08:27:54;;;;;;;;;;;20.70;43.10;;;;;;1605464;73;735;-71
2023/01/24 08:29:56;;;;;;;;;;;20.70;43.10;;;;;;1605240;73;1093;-72
2023/01/24 08:31:58;;;;;;;;;;;20.60;43.00;;;;;;1605935;73;949;-71
2023/01/24 08:34:00;;;;;;;;;;;20.60;42.80;;;;;;1605089;73;1473;-71
2023/01/24 08:36:02;;;;;;;;;;;20.60;42.90;;;;;;1616701;73;728;-69
2023/01/24 08:38:04;;;;;;;;;;;20.60;42.70;;;;;;1602812;72;755;-72
2023/01/24 08:40:06;;;;;;;;;;;20.60;42.50;;;;;;1613662;73;1082;-71
2023/01/24 08:42:09;;;;;;;;;;;20.60;42.70;;;;;;1613853;73;735;-71
2023/01/24 08:44:11;;;;;;;;;;;20.60;42.70;;;;;;1610771;73;745;-73
2023/01/24 08:46:13;;;;;;;;;;;20.50;42.60;;;;;;1611859;73;1948;-69
2023/01/24 08:48:14;;;;;;;;;;;20.50;42.80;;;;;;1611278;73;1172;-71
2023/01/24 08:50:18;;;;;;;;;;;20.50;42.70;;;;;;1610983;73;768;-74
2023/01/24 08:52:20;;;;;;;;;;;20.40;42.60;;;;;;1612864;73;1283;-70
2023/01/24 08:54:22;;;;;;;;;;;20.40;42.50;;;;;;1618806;73;717;-72
2023/01/24 08:56:24;;;;;;;;;;;20.40;42.40;;;;;;1599170;73;727;-72
2023/01/24 08:58:25;;;;;;;;;;;20.30;42.40;;;;;;1610470;73;1150;-69
2023/01/24 09:00:27;;;;;;;;;;;20.30;42.40;;;;;;1613320;73;727;-70
2023/01/24 09:02:32;;;;;;;;;;;20.30;42.50;;;;;;1595292;72;719;-72
2023/01/24 09:04:33;;;;;;;;;;;20.30;42.30;;;;;;1616435;73;1914;-74
2023/01/24 09:06:35;;;;;;;;;;;20.20;42.50;;;;;;1615825;73;799;-72
2023/01/24 09:08:36;;;;;;;;;;;20.20;42.40;;;;;;1614795;73;1136;-76
2023/01/24 09:10:38;;;;;;;;;;;20.20;42.30;;;;;;1615975;73;719;-71
2023/01/24 09:12:40;;;;;;;;;;;20.20;42.40;;;;;;1609409;72;711;-70
2023/01/24 09:14:42;;;;;;;;;;;20.10;42.40;;;;;;1601646;73;756;-71
2023/01/24 09:16:44;;;;;;;;;;;20.10;42.30;;;;;;1605262;72;696;-70
2023/01/24 09:18:46;;;;;;;;;;;20.10;42.30;;;;;;1615017;73;1163;-71
2023/01/24 09:20:48;;;;;;;;;;;20.10;42.50;;;;;;1607930;73;776;-73
2023/01/24 09:22:50;;;;;;;;;;;20.10;42.40;;;;;;1605376;72;736;-71
2023/01/24 09:24:51;;;;;;;;;;;20.20;42.20;;;;;;1612547;72;1929;-69
2023/01/24 09:26:53;;;;;;;;;;;20.10;42.50;;;;;;1612006;72;722;-68
2023/01/24 09:28:55;;;;;;;;;;;20.20;43.00;;;;;;1611477;72;1097;-69
2023/01/24 09:30:57;;;;;;;;;;;20.10;43.90;;;;;;1609870;72;1317;-69
2023/01/24 09:32:59;;;;;;;;;;;20.30;44.30;;;;;;1608587;72;684;-70
2023/01/24 09:35:01;;;;;;;;;;;20.30;44.40;;;;;;1611845;73;776;-73
2023/01/24 09:37:03;;;;;;;;;;;20.30;44.70;;;;;;1612215;73;689;-68
2023/01/24 09:39:05;;;;;;;;;;;20.30;44.80;;;;;;1618669;73;1166;-69
2023/01/24 09:41:08;;;;;;;;;;;20.30;44.90;;;;;;1613193;73;797;-67
2023/01/24 09:43:28;;;;;;;;;;;20.40;45.10;;;;;;1611326;73;702;-69
2023/01/24 09:45:31;;;;;;;;;;;20.40;45.10;;;;;;1607601;72;1912;-72
2023/01/24 09:47:38;;;;;;;;;;;20.40;45.30;;;;;;1606228;73;703;-69
2023/01/24 09:49:40;;;;;;;;;;;20.40;45.40;;;;;;1607027;73;1800;-70
2023/01/24 09:51:44;;;;;;;;;;;20.30;45.50;;;;;;1616698;72;712;-71
2023/01/24 09:53:46;;;;;;;;;;;20.40;45.50;;;;;;1599483;73;748;-69
2023/01/24 09:55:48;;;;;;;;;;;20.50;45.60;;;;;;1613437;73;734;-74
2023/01/24 09:58:01;;;;;;;;;;;20.50;45.70;;;;;;1606037;73;780;-69
2023/01/24 10:00:21;;;;;;;;;;;20.40;45.60;;;;;;1615815;72;1022;-69
2023/01/24 10:02:24;;;;;;;;;;;20.40;45.80;;;;;;1611475;73;753;-70
2023/01/24 10:04:27;;;;;;;;;;;20.40;45.90;;;;;;1615211;73;785;-69
2023/01/24 10:06:29;;;;;;;;;;;20.40;46.00;;;;;;1608149;73;1917;-72
2023/01/24 10:08:42;;;;;;;;;;;20.50;46.00;;;;;;1614981;73;1136;-70
2023/01/24 10:10:44;;;;;;;;;;;20.40;46.00;;;;;;1611968;73;1528;-67
2023/01/24 10:12:57;;;;;;;;;;;20.40;46.00;;;;;;1618110;73;720;-76
2023/01/24 10:15:19;;;;;;;;;;;20.50;46.20;;;;;;1616297;73;1181;-69
2023/01/24 10:17:22;;;;;;;;;;;20.50;46.20;;;;;;1603063;73;1146;-69
2023/01/24 10:19:29;;;;;;;;;;;20.50;46.10;;;;;;1620874;73;1174;-72
2023/01/24 10:21:48;;;;;;;;;;;20.60;46.10;;;;;;1557308;73;1016;-70
2023/01/24 10:23:52;;;;;;;;;;;20.60;46.10;;;;;;1614159;73;646;-71
2023/01/24 10:25:55;;;;;;;;;;;20.50;46.20;;;;;;1609404;72;1929;-68
2023/01/24 10:27:57;;;;;;;;;;;20.60;46.20;;;;;;1610464;73;1495;-69
2023/01/24 10:30:00;;;;;;;;;;;20.50;46.20;;;;;;1606692;73;1160;-70
2023/01/24 10:32:03;;;;;;;;;;;20.60;46.20;;;;;;1606400;73;831;-68
2023/01/24 10:34:12;;;;;;;;;;;20.50;46.20;;;;;;1619156;73;720;-69
2023/01/24 10:36:16;;;;;;;;;;;20.60;46.20;;;;;;1611275;73;652;-68
2023/01/24 10:38:18;;;;;;;;;;;20.70;46.20;;;;;;1606073;73;1842;-69
2023/01/24 10:40:20;;;;;;;;;;;20.60;46.10;;;;;;1601672;73;580;-70
2023/01/24 10:42:25;;;;;;;;;;;20.60;46.10;;;;;;1604001;73;746;-72
2023/01/24 10:44:28;;;;;;;;;;;20.60;46.00;;;;;;1605566;73;725;-69
2023/01/24 10:46:31;;;;;;;;;;;20.60;46.00;;;;;;1603137;73;1933;-70
2023/01/24 10:48:37;;;;;;;;;;;20.60;46.00;;;;;;1605301;73;1211;-69
2023/01/24 10:50:42;;;;;;;;;;;20.60;46.00;;;;;;1611708;72;804;-69
2023/01/24 10:52:46;;;;;;;;;;;20.60;45.90;;;;;;1607972;73;671;-69
2023/01/24 10:54:53;;;;;;;;;;;20.60;46.00;;;;;;1614354;73;764;-67
2023/01/24 10:56:54;;;;;;;;;;;20.60;46.00;;;;;;1608037;73;947;-73
2023/01/24 10:59:00;;;;;;;;;;;20.60;46.00;;;;;;1614733;73;1132;-70
2023/01/24 11:01:07;;;;;;;;;;;20.70;46.10;;;;;;1614864;73;783;-69
2023/01/24 11:03:13;;;;;;;;;;;20.70;46.10;;;;;;1611970;73;704;-70
2023/01/24 11:05:15;;;;;;;;;;;20.70;46.20;;;;;;1555761;76;1928;-70
2023/01/24 11:07:27;;;;;;;;;;;20.70;46.20;;;;;;1584587;75;724;-69
2023/01/24 11:09:30;;;;;;;;;;;20.70;46.30;;;;;;1544902;76;1122;-69
2023/01/24 11:11:32;;;;;;;;;;;20.60;46.10;;;;;;1558459;76;713;-70
2023/01/24 11:13:40;;;;;;;;;;;20.60;46.10;;;;;;1557280;76;716;-69
2023/01/24 11:15:44;;;;;;;;;;;20.70;46.30;;;;;;1581815;75;636;-69
2023/01/24 11:17:46;;;;;;;;;;;20.60;46.20;;;;;;1560972;76;1125;-69
2023/01/24 11:19:48;;;;;;;;;;;20.70;46.30;;;;;;1558559;75;1161;-70
2023/01/24 11:21:52;;;;;;;;;;;20.70;46.30;;;;;;1577735;75;806;-69
2023/01/24 11:24:01;;;;;;;;;;;20.70;46.40;;;;;;1536561;77;1540;-69
2023/01/24 11:26:04;;;;;;;;;;;20.70;46.30;;;;;;1545400;77;1908;-69
2023/01/24 11:28:07;;;;;;;;;;;20.70;46.40;;;;;;1562182;74;793;-72
2023/01/24 11:30:19;;;;;;;;;;;20.60;46.30;;;;;;1564138;74;1114;-69
2023/01/24 11:32:25;;;;;;;;;;;20.70;46.50;;;;;;1544761;75;803;-70
2023/01/24 11:34:36;;;;;;;;;;;20.70;46.50;;;;;;1546648;75;703;-69
2023/01/24 11:36:39;;;;;;;;;;;20.70;46.50;;;;;;1539397;77;713;-69
2023/01/24 11:38:42;;;;;;;;;;;20.70;46.50;;;;;;1538587;76;1145;-69
2023/01/24 11:41:04;;;;;;;;;;;20.70;46.50;;;;;;1548724;76;682;-69
2023/01/24 11:43:10;;;;;;;;;;;20.70;46.50;;;;;;1533704;76;676;-69
2023/01/24 11:45:19;;;;;;;;;;;20.60;46.50;;;;;;1560694;74;1102;-71
2023/01/24 11:47:21;;;;;;;;;;;20.70;46.70;;;;;;1542136;75;1929;-73
2023/01/24 11:49:41;;;;;;;;;;;20.70;46.90;;;;;;1539707;75;1147;-74
2023/01/24 11:51:45;;;;;;;;;;;20.70;46.90;;;;;;1551499;75;686;-69
2023/01/24 11:53:54;;;;;;;;;;;20.60;46.80;;;;;;1547696;75;765;-70
2023/01/24 11:55:58;;;;;;;;;;;20.70;47.00;;;;;;1538014;75;1146;-71
2023/01/24 11:58:18;;;;;;;;;;;20.70;47.00;;;;;;1533653;75;1140;-70
2023/01/24 12:00:25;;;;;;;;;;;20.70;47.10;;;;;;1538549;75;669;-70
2023/01/24 12:02:31;;;;;;;;;;;20.70;47.10;;;;;;1541306;76;650;-73
2023/01/24 12:04:51;;;;;;;;;;;20.70;47.20;;;;;;1531074;76;1090;-71
2023/01/24 12:07:00;;;;;;;;;;;20.70;47.20;;;;;;1546496;76;1919;-74
2023/01/24 12:09:04;;;;;;;;;;;20.70;47.30;;;;;;1546926;76;1173;-71
2023/01/24 12:11:20;;;;;;;;;;;20.70;47.30;;;;;;1546132;76;679;-70
2023/01/24 12:13:23;;;;;;;;;;;20.70;47.40;;;;;;1537755;74;766;-69
2023/01/24 12:15:30;;;;;;;;;;;20.60;47.30;;;;;;1541953;76;706;-73
2023/01/24 12:17:46;;;;;;;;;;;20.60;47.60;;;;;;1538350;76;702;-67
2023/01/24 12:19:49;;;;;;;;;;;20.60;47.40;;;;;;1564517;72;2094;-67
2023/01/24 12:21:53;;;;;;;;;;;20.60;47.10;;;;;;1561270;75;1723;-70
2023/01/24 12:24:02;;;;;;;;;;;20.70;47.10;;;;;;1565752;75;1037;-70
2023/01/24 12:26:05;;;;;;;;;;;20.80;46.90;;;;;;1553611;74;1931;-69
2023/01/24 12:28:09;;;;;;;;;;;20.80;46.90;;;;;;1559981;75;1953;-70
2023/01/24 12:30:19;;;;;;;;;;;20.70;46.80;;;;;;1567638;75;1204;-71
2023/01/24 12:32:22;;;;;;;;;;;20.80;46.80;;;;;;1561024;74;1598;-70
2023/01/24 12:34:32;;;;;;;;;;;20.80;46.80;;;;;;1550448;74;980;-70
2023/01/24 12:36:38;;;;;;;;;;;20.70;46.70;;;;;;1566391;75;755;-70
2023/01/24 12:38:42;;;;;;;;;;;20.80;46.70;;;;;;1564668;75;1566;-70
2023/01/24 12:40:48;;;;;;;;;;;20.70;46.70;;;;;;1561794;74;1090;-72
2023/01/24 12:43:07;;;;;;;;;;;20.80;46.70;;;;;;1568018;74;752;-71
2023/01/24 12:45:13;;;;;;;;;;;20.70;46.80;;;;;;1562005;74;769;-70
2023/01/24 12:47:17;;;;;;;;;;;20.70;46.80;;;;;;1566594;74;1914;-71
2023/01/24 12:49:30;;;;;;;;;;;20.70;46.80;;;;;;1558513;74;1093;-70
2023/01/24 12:51:33;;;;;;;;;;;20.70;46.80;;;;;;1564047;74;771;-70
2023/01/24 12:53:40;;;;;;;;;;;20.60;46.70;;;;;;1565340;74;730;-71